Jukka Hälinen

Ilmailusää

56 viestiä aiheessa

Yritin tänään SVFR-välissä Tampereella katsella miten Jämin sade liikkuu. Valitettavasti tuo ei päivittynyt ajan tasalle. Varmaan mun laitteessa vika (iPad/3G).

 

Jospa tuo lennonvalvonta ja -varmistus siirtyisikin vaikka Trafille - viranomaisen on helpompi toimia, kun ei tarvitse laskea näissäkin sitä halvinta tarjousta.

 

t. Timo

Jaa viesti


Link to post
Jaa muulla sivustolla

Kyllä se hankintalaki koskee viranomaisiakin.

Trafilla ei ole voittotavoitetta, Finavia Oyj:llä on.

 

Hankintalaki sallii valintakriteereiksi muunkin kuin hinnan, joka näissä julkisissa hankinnoissa kyllä parhaimmillaan on valintakriteerinä 100%.

 

t. Timo

 

Jaa viesti


Link to post
Jaa muulla sivustolla

No nyt katselin hieman tarkemmin. Pitää varmaan lähettää myös mailitse - "Palautetta Ilmailusäähän liittyen voit lähettää osoitteeseen ilmailu@ilmatieteenlaitos.fi"

 

- Etusivulla voisi olla koko Suomen tutkakuva, ei vain E-Suomi.

- METAReissa ja TAFfeissa ei kyllä tarvitsisi paikannimiä. Oletuksena voisi olla Suomi, eikös tämä ole suomalaisille tarkoitettu palvelu - nyt pitää valita ensin "Sää lentopaikalla" ja sen jälkeen vielä erikseen "Suomi".

- AWS Metareissa paikannimet täytyy tietenkin olla.

- E.m. syystä METAR-lista leviää useammalle sivulle - turhaan. Taas yksi paperi lisää (mulla ei ole 2-puoleista printteriä)

- METAR-TAF-

- Edelliset pitäisi myös saada tulostettua yhdelle paperille jos joku vielä haluaa käyttää paperisia tulosteita.

- SWC-tuloste on mulla ainakin aika suttu, tuonhan voisi jakaa PDF:nä niin pysyisivät viivat nätteinä

- Vanhassa Forecan palvelussa ollut "värikartta" (pilvikorkeus/tuulet/lämpötila) oli kyllä eri näppärä, sen idean voisi tänne copy with pride.

- "Sää lentoreitillä" on kiva kun voi hiirellä piirrellä reittejä (kartalla voisi kyllä olla kenttien koodit näkyvissä). Käyttökelpoisempi löytyy https://www.ippc.no/ippc/aerodromes.jsp jossa voi ruksia myös TAFit, GAFORit, NOTAMit ja kaikki mukaan. Saisi ne varmaan lisättyä tähänkin.

 

Nyt kun Malmin briefingin kaverit ovat Ilmatieteen laitoksella töissä, voisi heilläkin olla tähän jotain annettavaa...liekö heitä konsultoitu?

 

t. Timo

 

Jaa viesti


Link to post
Jaa muulla sivustolla

Oonko liian inssinööri  mutta minä haluaisin vain tällaisen listauksen klikkauksella mukaan (+SWC-kartta lukukelpoisena):

---------------

 

08.07.13 13:55z 

=======

EFET 081320Z 26017KT 220V310 9999 SCT049 15/03 Q1017=

EFHA 081320Z 32010KT 290V360 9999 SCT045 19/07 Q1023=

EFHF 081320Z 35008KT 300V040 CAVOK 20/13 Q1022=

EFHK 081320Z 35008KT CAVOK 18/12 Q1023 NOSIG=

EFIV 081320Z VRB12G24KT CAVOK 18/02 Q1015=

EFJO 081320Z 27008KT 240V310 CAVOK 19/09 Q1020=

EFJY 081330Z 29009KT CAVOK 20/08 Q1023=

EFKA 081320Z 31011KT //// NCD 17/07 Q1025=

EFKE 081320Z 26009KT 210V310 CAVOK 20/05 Q1020=

EFKI 081320Z 28014KT 260V320 CAVOK 18/07 Q1021=

EFKK 081320Z 29010KT 270V340 9999 FEW048 BKN160 17/05 Q1024=

EFKS 081320Z 28010KT 240V320 CAVOK 16/03 Q1018=

EFKT 081320Z 28005KT 230V300 CAVOK 14/07 Q1018=

EFKU 081320Z 31013KT 270V350 CAVOK 20/06 Q1021=

EFLP 081320Z 34009KT 310V010 9999 ////// 19/12 Q1021=

EFMA 081320Z 35015KT 320V040 9999 FEW035 17/07 Q1028=

EFMI 081320Z 29007KT 240V340 CAVOK 20/10 Q1022=

EFOU 081339Z 27015G27KT CAVOK 18/08 Q1021=

EFPO 081320Z 30015KT CAVOK 17/08 Q1026=

EFRO 081340Z 29011KT 260V360 CAVOK 18/02 Q1019=

EFSA 081320Z 30012KT CAVOK 20/07 Q1021=

EFSI 081320Z 31009KT 260V350 9999 FEW049 18/07 Q1025=

EFTP 081340Z 32009KT 280V360 9999 FEW047 19/09 Q1024=

EFTU 081322Z 34013G23KT 310V010 CAVOK 20/07 Q1025=

EFUT 081320Z 32008KT 280V010 CAVOK 19/12 Q1022=

EFVA 081320Z 33009KT 9999 FEW052/// 17/06 Q1025=

EFVR 081320Z 32009KT 280V350 CAVOK 19/09 Q1022=

 

TAF SUOMI

==========

EFHA 081126Z 0812/0814 30009KT CAVOK=

EFHF 081132Z 0812/0817 34011KT CAVOK PROB30 0812/0814 FEW050CB=

EFHK 081132Z 0812/0912 34014KT CAVOK PROB30 0812/0814 FEW040CB=

EFIV 080530Z 0806/0810 24012KT CAVOK=

EFJO 081128Z 0812/0821 31010KT CAVOK=

EFJY 081128Z 0812/0912 31011KT CAVOK BECMG 0818/0820 29004KT=

EFKA 080523Z 0806/0814 32010KT CAVOK=

EFKE 081130Z 0812/0818 27008KT CAVOK=

EFKI 080830Z 0809/0812 27010KT 9999 FEW040=

EFKK 081126Z 0812/0816 31010KT CAVOK=

EFKS 080830Z 0809/0811 27010KT CAVOK=

EFKT 080830Z 0809/0811 28015G25KT 9999 SCT045=

EFKU 081128Z 0812/0912 30010KT CAVOK=

EFLP 081128Z 0812/0815 31009KT CAVOK PROB40 0812/0815 FEW050CB=

EFMA 081132Z 0812/0821 35015KT CAVOK BECMG 0819/0821 34004KT=

EFOU 081130Z 0812/0912 30016KT CAVOK BECMG 0816/0818 25006KT=

EFPO 081126Z 0812/0821 32014KT CAVOK=

EFRO 081130Z 0812/0912 27012KT CAVOK TEMPO 0907/0912 22014G28KT 7000 -RA BKN013=

EFSA 081128Z 0812/0815 31010KT 9999 FEW040 PROB40 TEMPO 0812/0813 SCT050CB=

EFTP 081126Z 0812/0912 31008KT CAVOK=

EFTU 081132Z 0812/0912 02011KT CAVOK BECMG 0907/0909 25010KT=

EFUT 080826Z 0809/0813 32008KT 9999 FEW040 PROB30 TEMPO 0809/0813 SHRA SCT050CB=

EFVA 081126Z 0812/0912 31010KT 9999 BKN045=

 

AWS METARS

==========

VANTAA HELSINKI-VANTAAN LENTOASEMA -> ILHK 081340Z 36011KT CAVOK 20/14 Q1023 RMK QFE1017 =

KIIKALA LENTOKENTTÄ -> ILIK 081340Z 36012KT CAVOK 20/11 Q1023 RMK QFE1009 =

JYVÄSKYLÄ LENTOASEMA -> ILJY 081340Z 30011KT 9999 SCT049 19/06 Q1022 RMK QFE1006 =

PUDASJÄRVI LENTOKENTTÄ -> ILPU 081340Z 28011KT 9999 FEW049 18/06 Q1019 RMK QFE1005 =

SALLA KK, PALOASEMA -> ILQA 081340Z 28010KT CAVOK 18/04 Q1017 RMK QFE0991 =

INARI NELLIM -> ILQB 081340Z 23005KT 9999 SCT033 SCT066 BKN094 13/07 Q1015 RMK QFE1000 =

PELLO KK -> ILQE 081340Z 29008KT CAVOK 18/03 Q1019 RMK QFE1009 =

HAILUOTO MARJANIEMI -> ILQH 081340Z 25017KT CAVOK 16/11 Q1022 RMK QFE1021 =

KITTILÄ KENTTÄROVA -> ILQI 081340Z 28010KT //// ////// FEW079 BKN099 15/03 Q1017 RMK QFE0976 NOWEATHEROBS =

KEMI-AJOS -> ILQJ 081340Z 25019KT CAVOK 18/10 Q1020 RMK QFE1020 =

KITTILÄ SAMMALTUNTURI -> ILQK 081340Z 29015KT 9999 /// 12/02 Q1018 RMK QFE0951 NOCLOUDOBS =

OULU VIHREÄSAARI -> ILQL 081340Z 27018KT 9999 /// 17/09 Q1021 RMK QFE1021 NOCLOUDOBS =

KEMIJÿRVI LENTOKENTTÿ -> ILQM 081340Z 32009KT CAVOK 18/02 Q1017 RMK QFE0993 =

ENONTEKIÖ KILPISJÄRVI -> ILQN 081340Z 30010KT 9999 -DZ BKN032 09/06 Q1018 RMK QFE0961 =

SODANKYLÄ AWS -> ILQO 081340Z 27010KT CAVOK 18/04 Q1017 RMK QFE0996 =

RAAHE LAPALUOTO -> ILQP 081340Z 26016KT 9999 /// 16/11 Q1022 RMK QFE1022 NOCLOUDOBS =

TORNIO TORPPI -> ILQQ 081340Z 28005KT CAVOK 19/06 Q1020 RMK QFE1019 =

ROVANIEMI-KESKUSTA -> ILQR 081340Z 28011KT CAVOK 20/03 Q1019 RMK QFE1008 =

SUOMUSSALMI PESIÖ -> ILQS 081340Z 29010KT CAVOK 18/06 Q1019 RMK QFE0992 =

INARI-SEVETTIJÄRVI -> ILQT 081340Z 29013KT 9999 BKN049 14/04 Q//// RMK QFE//// =

UTSJOKI KEVO -> ILQU 081340Z 30014KT CAVOK 16/05 Q1014 RMK QFE1001 =

SODANKYLÄ VUOTSO -> ILQV 081340Z 29006KT 9999 -SHRA FEW043 SCT059 BKN074 15/05 Q1016 RMK QFE0987 =

VAALA PELSO -> ILQY 081340Z 31010KT CAVOK 18/05 Q1021 RMK QFE1007 =

ROVANIEMI LENTOASEMA -> ILRO 081340Z 27012KT CAVOK 19/02 Q1018 RMK QFE0995 =

RANUA LENTOKENTTÄ -> ILRU 081340Z 29008KT CAVOK 19/02 Q1019 RMK QFE1000 =

ÄHTÄRI MYLLYMÄKI -> ILXA 081340Z 31005KT 9999 FEW046 18/07 Q1024 RMK QFE1005 =

PORI RAUTATIEASEMA -> ILXB 081340Z 31010KT CAVOK 17/07 Q1026 RMK QFE1025 =

VARKAUS KOSULANNIEMI -> ILXC 081340Z /////KT 9999 FEW048 20/08 Q//// RMK QFE//// =

JOENSUU LINNUNLAHTI -> ILXD 081340Z /////KT //// ////// BKN092 19/09 Q//// RMK QFE//// =

VIEREMÄ KAARAKKALA -> ILXE 081340Z 31011KT 9999 FEW049 17/07 Q1021 RMK QFE0996 =

ILOMANTSI MEKRIJÄRVI -> ILXI 081340Z ///05KT CAVOK 20/10 Q1019 RMK QFE1000 =

KAJAANI PETÄISENNISKA -> ILXJ 081340Z 30011KT 9999 FEW049 17/04 Q1020 RMK QFE1001 =

KUHMO-KALLIOJOKI -> ILXK 081340Z /////KT CAVOK 19/05 Q1019 RMK QFE0995 =

NIINISALO -> ILXN 081340Z 30012KT CAVOK 18/06 Q1025 RMK QFE1010 =

KAUHAJOKI KUJA- -> ILXO 081340Z 30009KT CAVOK 17/07 Q1025 RMK QFE1014 =

PORI TAHKOLUOTO -> ILXP 081340Z 33019KT CAVOK 16/09 Q1026 RMK QFE1026 =

RAUTAVAARA YLÄ-LUOSTA -> ILXR 081340Z 32005KT CAVOK 19/07 Q1020 RMK QFE1000 =

SOTKAMO KUOLANIEMI -> ILXS 081340Z 31011KT CAVOK 18/05 Q1020 RMK QFE1001 =

KOKKOLA TANKAR -> ILXT 081340Z 24014KT CAVOK 16/10 Q1024 RMK QFE1023 =

PUNKAHARJU LAUKANSAARI -> ILXU 081340Z /////KT CAVOK 20/09 Q1020 RMK QFE1011 =

VIITASAARI KK HAAPANIEMI -> ILXV 081340Z 32006KT CAVOK 19/06 Q1023 RMK QFE1007 =

PYHÄJÄRVI OJAKYLÄ -> ILXW 081340Z /////KT 9999 FEW049 17/05 Q1022 RMK QFE1004 =

VAASA KLEMETTILÄ -> ILXX 081340Z /////KT CAVOK 18/06 Q1025 RMK QFE1024 =

KUOPIO YLIOPISTO -> ILXY 081340Z 32010KT CAVOK 19/07 Q1021 RMK QFE1010 =

YLIVIESKA -> ILYL 081340Z 30013KT CAVOK 17/05 Q1023 RMK QFE1014 =

HELSINKI HARMAJA -> ILZA 081330Z 36011KT 9999 /// 19/14 Q1022 RMK QFE1022 =

JOMALA JOMALABY -> ILZB 081340Z 36009KT CAVOK 17/06 Q1028 RMK QFE1027 =

HELSINKI-KUMPULA -> ILZD 080914Z NIL RMK LAST 061220=

HELSINKI KAISANIEMI -> ILZE 081340Z 01008KT CAVOK 21/13 Q1022 RMK QFE1022 =

NURMIJÄRVI GEOFYS OBSERVATORIO -> ILZG 081340Z /////KT CAVOK 19/12 Q//// RMK QFE//// =

TAMPERE HÄRMÄLÄ -> ILZH 081340Z /////KT 9999 BKN049 19/09 Q1024 RMK QFE1014 =

KUSTAVI ISOKARI -> ILZI 081340Z 34018KT CAVOK 16/09 Q1027 RMK QFE1026 =

JOKIOINEN OBS/AUTOMAATTI -> ILZJ 081340Z 33011KT CAVOK 20/10 Q1023 RMK QFE1011 =

KUMLINGE KK. -> ILZK 081340Z 34017KT 9999 FEW024 15/09 Q1027 RMK QFE1024 =

HAMEENLINNA -> ILZL 081340Z 34008KT 9999 FEW034 19/11 Q1024 RMK QFE1013 =

LAHTI LAUNE -> ILZN 081340Z 35003KT 9999 FEW027 BKN033 20/12 Q1022 RMK QFE1013 =

KOTKA HAAPASAARI -> ILZO 081340Z 36013KT CAVOK 20/15 Q1021 RMK QFE1020 =

KOKEMÄKI PEIPOHJA HYRKÖLÄ -> ILZP 081340Z 29013KT 9999 /// 18/09 Q1025 RMK QFE1020 NOCLOUDOBS =

TURKU ARTUKAINEN -> ILZR 081340Z 34009KT CAVOK 20/07 Q1025 RMK QFE1024 =

INKOO BÅGASKÄR -> ILZS 081340Z 03010KT CAVOK 21/15 Q1023 RMK QFE1021 =

TAMMISAARI JUSSARÖ -> ILZT 081340Z 35009KT CAVOK 23/13 Q1022 RMK QFE1020 =

KORPPOO UTÖ -> ILZU 081340Z 34023KT CAVOK 16/10 Q1026 RMK QFE1025 =

PORVOO HARABACKA -> ILZV 081340Z 34009KT 9999 OVC049 19/13 Q1022 RMK QFE1020 =

LEMLAND NYHAMN -> ILZY 081340Z 35015KT CAVOK 17/08 Q1028 RMK QFE1027 =

 

 

GAFOR SUOMI

=============

VANTAA HELSINKI-VANTAAN LENTOASEMA -> FBFI41 EFLK 081100

GA-FCST FOR AREAS 11/17 VALID 1221

WX KYLMARINTAMA SATEINEN SIITYY NOPEASTI

KAAKKOON. LUOTEENPUOLEINEN VIRTAUS.

PILVISYYS ENIMMAKSEEN VAHAISTA. HYVAT

LENTOSAAOLOSUHTEET.

WINDS 11/17

SFC 330/04-13KT

MAR 10-20KT MAR SW 15-25G25-35KT

2000FT 330-360/15-25KT

5000FT 330/10-30KT

0-C LEVEL FL050(N)-ABV FL100(S)

ICE 11/17 NIL

TURB 11/17 NIL

 

GAFOR EFHK 1221 BBBB 11/17 O

13,15S 1214 LCA D SHRA=

 

------------------------

SIILLINJÄRVI KUOPION LENTOASEMA -> FBFI42 EFRO 081100

GA-FCST FOR AREAS 21/25 VALID 1221

WX HAJANAISET SATEET VAISTYVAT ALUEELTA

KAAKKOON JA TAIVAS SELKENEE LUOTEESTA

ALKAEN.

WINDS 21/25

SFC 300-330/06-12KT

2000FT 320-340/15-25KT

5000FT 270-300/10-20KT

0-C LEVEL FL080-100

ICE NIL

TURB NIL/FBL BLW 5000FT

 

GAFOR EFRO 1221 BBBB 21,22SE,23,25E O

-SHRA BECMG 1215 NSW 22NW,24,25W O=

 

------------------------

ROVANIEMI LENTOASEMA -> FBFI43 EFRO 081100

GA-FCST FOR AREAS 30/39 VALID 1221

WX LÄNSILUOTEINEN ILMAVIRTAUS.MELKO

RUNSASTA CU/SC-PILVISYYTTA JA

POHJOIS-LAPISSA PAIKOIN VESIKUUROJA.

POHJANLAHDEN RANNIKKOKAISTALLA SELKEAA

JA MUUALLAKIN

YOTÄ KOHTI SELKENEVAA.

WINDS 30/39

SFC 260-300/06-12LT

2000FT 270-300/15-25KT

5000FT 270-330/15-25KT

0-C LEVEL 3000FT-FL080

ICE FBL/MOD ASSW CU/TCU

TURB 30/39 1217 FBL/MOD BLW FL100

 

GAFOR EFRO 1221 BBBB 30/35 O 36/39 O

LCA -SHRA=

 

------------------------

 

 

 

 

 

Jaa viesti


Link to post
Jaa muulla sivustolla

Pienen palautteen paikka tuo olisi joo. Aivan totaalisen kamala verrattuna Forecan entiseen palveluun. Ensimmäisenä mieleen tulee ainakin nämä..

 

- Paikannimet jne turha krääsä pois METAReista. Jokainen joka palvelua tarvitsee osaa kyllä lukea siitä METARin alusta kenttäkoodin.

 

- Kaikki tuo javascript-oksennus pois. Tuollaisen palvelun pitää toimia mobiililaitteilla moitteettomasti, ja nuo eivät asiaa auta yhtään. Esimerkiksi WP8-Nokian selaimella ei meinannut saada millään refreshattua tietoja, vanhaa tarjosi koko ajan. Saati sitten jollakin vanhalla Symbian-luurilla tms. 11kpl scripti-includeja sivulla jotenkin kertoo että moista puolta ei ole ajateltu yhtään.

 

- Käyttölogiikassa kaikkea pientä. Esimerkiksi moni dropdown-valikko palauttaa vain "Error" jos ei ole toisesta valikosta ensin valittuna jotain. Esimerkiksi tuo Sää lentopaikalla -sivu vaatii näemmä ensin alueen valinnan.

 

- Kaikinpuolin sekava....

Jaa viesti


Link to post
Jaa muulla sivustolla

Aikakoodi tutka- ja satelliittikuvan alla jää kosketusnäytöllä oikeakätisen käyttäjän kämmenselän alle piiloon.

 

Muilla ilmatieteenlaitoksen sivuilla aikajana on rakennettu linkkilistana allekkain. Se on muuten hyvä ratkaisu, mutta vasenkätinen ei näe tutkakuvaa.

 

 

Jaa viesti


Link to post
Jaa muulla sivustolla

Oonko liian inssinööri  mutta minä haluaisin vain tällaisen listauksen klikkauksella mukaan (+SWC-kartta lukukelpoisena):

 

Kyllä olet ja kuten tiedätkin, tein tämmöisen ihan omaa lennonvalmisteluani helpottamaan, kun haluan nuo säät mukaan tulostaa ja printterissä ei paperi riitä ihan ilmatieteenlaitoksen toiveisiin asti:

http://lentopaikkakisa.com/saa.php

 

Sivu toimii toistaiseksi ja kuten varmasti ymmärrätte se on täysin kokeellinen ja epäluotettava. Huomioikaa, että olen parsinut AWS-metareista  sekä Metareista minulle turhaa tekstiä pois kuten AUTO sekä NOCBANALYSIS jotka oikeissa Metareissa on ja pitääkin olla. Kaikki tiedot on lähtöisin tuolta uudesta ja turhankin interaktiivisesta http://lentosaa.fi -palvelusta.

 

Saa katsoa, voi ehkä toimiakin, ainakin toistaiseksi.

 

Kun tämän tulostaa selaimesta printterille, niin se jakautuu neljälle sivuille (Kiitos vinkistä Miika) ja on melko näppärä ottaa lennolle mukaan.

 

Kalle

 

Jaa viesti


Link to post
Jaa muulla sivustolla

Cool tnx Kalle.

 

Toi on kyllä just se jota tarttee. Valitettavasti näissä asioissa ei kiva graffa ole tarpeen.

 

t. Timo

Jaa viesti


Link to post
Jaa muulla sivustolla

Kyllä olet ja kuten tiedätkin, tein tämmöisen ihan omaa lennonvalmisteluani helpottamaan, kun haluan nuo säät mukaan tulostaa ja printterissä ei paperi riitä ihan ilmatieteenlaitoksen toiveisiin asti:

http://lentopaikkakisa.com/saa.php

Kiitos!

Hetken aikaa jo hikikarpalot valuivat otsalta, kun ajattelinkin miten koitan kännykällä tulkita tuota uutta ilmailusää-palvelua jossain reissun päällä... :'(

 

Nyt hikikarpalot pääsevät ainakin tältä osin kuivahtamaan! Lisäsin tämän välittömästi omalle linkkisivulleni (http://koti.mbnet.fi/korsu/ilmailu/), ja jostain syystä se nousi korkeammalle, kuin tuo virallinen datan lähde.

 

-Markku

Jaa viesti


Link to post
Jaa muulla sivustolla

Kiitokset Kalle Reunaselle!

 

Siinä on se mitä hupilentäjä oikeasti tarvisee. 

Laitoin bookmarkit heti joka puhelimeen ja iPaddiin.

Olisi siinä mallia Finavian 100.000€:n nörteillekin. 

 

Jos ihan vähän saisi toivoa, niin AWS-metarit vaikka aakkosjärjestykseen...

 

Mutta tälläisenaankin voittaa Finavian version n. pisteillä 1000-0. 

 

 

 

Jaa viesti


Link to post
Jaa muulla sivustolla

Jos ihan vähän saisi toivoa, niin AWS-metarit vaikka aakkosjärjestykseen...

 

Kiva, että pidätte.. nyt on sitten AWS-metarit aakkosjärjestyksessä selkokielisen nimen mukaan aakkostettuna.

 

- kalle

Jaa viesti


Link to post
Jaa muulla sivustolla

Lentokeleistä paras on CAVOK.

 

mistä tulee sanonta TYMÄ ?

 

 

Witsi: kaveri lensi kerran Malmilla ihan VHF-keleissä , kun oli sankkaa sumua ?  :o

Jaa viesti


Link to post
Jaa muulla sivustolla

nyt on sitten AWS-metarit aakkosjärjestyksessä selkokielisen nimen mukaan aakkostettuna.

 

miten toimisi maantieteellinen järjestys esim. GAFOR-alueiden mukaan?

Jaa viesti


Link to post
Jaa muulla sivustolla

miten toimisi maantieteellinen järjestys esim. GAFOR-alueiden mukaan?

 

Miikan toiveesta koodimopo lähtee karkailemaan käsistä:

 

AWS-metarit saat nyt halutessaan myös GAFOR -alueiden mukaisessa järjestyksessä lisäämällä

osoitteeseen parametrin gaws.  Säädin sivua myös fontin ja muutaman muun pikkuseikan kanssa seuraavasti.

Osoitteen voi kirjoittaa nyt lyhyessä muodossa http://lentopaikkakisa.com/saa. Osoitteen perään voi liittää parametreja seuraavasti:

 

l=n tekstin leveys esim: http://lentopaikkakisa.com/saa?l=50

määrittelee metarien ja taffien sarakkeen leveyden. Oletuksena ilman tätä leveys on 100 merkkiä.

 

ng ei grafiikkaa esim:http://lentopaikkakisa.com/saa?ng

tekee sivun ilman grafiikoita. Lataa ohuella mobiiliyhteydellä sivun varmemmin.

 

nd no disclaimer esim:http://lentopaikkakisa.com/saa?nd

jättää sivun lopussa olevat varoitukset ja viitteet pois helpottaen sivun sovittamista

kapealle mobiiliruudulle

 

gaws    AWS-metarit Gafor alueittan esim: http://lentopaikkakisa.com/saa?gaws

 

pb sivunvaihto lisää ryhmien väliin sivunvaihdot tulostusta varten

 

Kaikkia yllä olevia parametreja voi yhdistellä haluamallaan tavalla liittämällä ne toisiinsa &-merkin avulla. Huomaa, että ensimmäinen parametri erotetaan saa-sanasta ?-merkillä.

 

Esim: http://lentopaikkakisa.com/saa?nd&gaws&pb&l=120

 

Tuo sään ilman varoituksia AWS-Metarit Gafor-alueittain järjestettynä sivunvaihdoilla varustettuna 120 merkkiä leveästi.

 

Mobiilikäytössä näppärä yhdistelmä voisi olla esim:

 

http://lentopaikkakisa.com/saa?nd&ng&gaws&l=40

 

Joka tuo sään ilman kuvia, varoituksia AWS-alueittain mukavasti 40 merkin levyisenä.  Tuo kun on kirjamerkkinä suoraan, niin päivityksen säähän sää yhdellä avauksella.

 

Mukavia lentoja

Kalle

Jaa viesti


Link to post
Jaa muulla sivustolla

Vielä pientä säätöä tein eli kirjoitin sen vielä alusta kerran uusiksi. Nyt tätä ei säädetä enempää. Toimii jos toimii.

 

Raportin saa nyt myös siten, että  Kaikki Metarit ja TAFfit esitetään GAFOR-alueittain ja vanhaksi menneetä TAFfit jotka muuten näkyvät tuolla lentosaa.fi -palvelussa (varokaahan vanhoja!) jätetään näyttämättä.  Vanhat metarit on värikoodattu, eli jos havainto happanee niin sitä väritellään ruskeasta punaiseen.

 

Kaikki samalla listalla-formaatin  saa parametrilla gall

 

fontin koko voi säätää parametrilla f=n  jossa n on 0.3 - 2

 

Muuten nuo em. parametrit toimii kuten aiemminkin.   

Oma suosikkini mobiilikäytössä on:

http://lentopaikkakisa.com/saa?&ng&nd&l=40&f=1&gall&nd

 

Ja lennolle mukaan printattuna:

http://lentopaikkakisa.com/saa?%3fpb&nd&l=100&f=0.8&pb

 

[ attachment removed / expired ]

Mukavia lentoja ja hyviä säitä kaikille.

 

-kalle

Jaa viesti


Link to post
Jaa muulla sivustolla

Luo uusi käyttäjätunnus tai kirjaudu sisään

Sinun täytyy olla jäsen osallistuaksesi keskusteluun

Luo käyttäjätili

Rekisteröi uusi käyttäjätili helposti ja nopeasti!


Luo uusi käyttäjätili

Kirjaudu sisään

Sinulla on jo käyttäjätili?


Kirjaudu sisään